createdAt,value
2019-02-11T00:00:22.348Z,4.56
2019-02-11T00:01:22.307Z,4.59
2019-02-11T00:02:22.267Z,4.56
2019-02-11T00:03:22.231Z,4.55
2019-02-11T00:04:22.188Z,4.68
2019-02-11T00:05:22.152Z,4.68
2019-02-11T00:06:22.117Z,4.59
2019-02-11T00:07:22.068Z,4.53
2019-02-11T00:08:22.039Z,4.58
2019-02-11T00:09:21.996Z,4.63
2019-02-11T00:10:21.968Z,4.62
2019-02-11T00:11:21.929Z,4.60
2019-02-11T00:12:21.892Z,4.59
2019-02-11T00:13:21.842Z,4.60
2019-02-11T00:14:21.812Z,4.59
2019-02-11T00:15:21.774Z,4.49
2019-02-11T00:16:21.732Z,4.60
2019-02-11T00:17:21.703Z,4.55
2019-02-11T00:18:21.658Z,4.53
2019-02-11T00:19:21.620Z,4.56
2019-02-11T00:20:21.599Z,4.56
2019-02-11T00:21:21.547Z,4.60
2019-02-11T00:22:21.533Z,4.60
2019-02-11T00:23:21.473Z,4.59
2019-02-11T00:24:21.433Z,4.55
2019-02-11T00:25:21.405Z,4.53
2019-02-11T00:26:21.405Z,4.52
2019-02-11T00:27:21.369Z,4.41
2019-02-11T00:28:21.275Z,4.52
2019-02-11T00:29:21.240Z,4.49
2019-02-11T00:30:21.202Z,4.52
2019-02-11T00:31:21.192Z,4.55
2019-02-11T00:32:21.122Z,4.45
2019-02-11T00:33:21.134Z,4.48
2019-02-11T00:34:21.040Z,4.45
2019-02-11T00:35:21.013Z,4.45
2019-02-11T00:36:20.974Z,4.49
2019-02-11T00:37:20.929Z,4.45
2019-02-11T00:38:20.892Z,4.52
2019-02-11T00:39:20.861Z,4.49
2019-02-11T00:40:20.820Z,4.45
2019-02-11T00:41:20.788Z,4.45
2019-02-11T00:42:20.734Z,4.42
2019-02-11T00:43:20.700Z,4.55
2019-02-11T00:44:20.664Z,4.44
2019-02-11T00:45:20.628Z,4.48
2019-02-11T00:46:20.595Z,4.45
2019-02-11T00:47:20.564Z,4.38
2019-02-11T00:48:20.515Z,4.38
2019-02-11T00:49:20.481Z,4.40
2019-02-11T00:50:20.450Z,4.49
2019-02-11T00:51:20.395Z,4.49
2019-02-11T00:52:20.360Z,4.42
2019-02-11T00:53:20.333Z,4.49
2019-02-11T00:54:20.280Z,4.42
2019-02-11T00:55:20.248Z,4.41
2019-02-11T00:56:20.206Z,4.52
2019-02-11T00:57:20.174Z,4.48
2019-02-11T00:58:20.130Z,4.41
2019-02-11T00:59:21.047Z,4.41
2019-02-11T01:00:20.051Z,4.41
2019-02-11T01:01:20.012Z,4.48
2019-02-11T01:02:19.977Z,4.34
2019-02-11T01:03:19.947Z,4.30
2019-02-11T01:04:19.895Z,4.42
2019-02-11T01:05:19.865Z,4.30
2019-02-11T01:06:19.826Z,4.28
2019-02-11T01:07:19.789Z,4.32
2019-02-11T01:08:19.746Z,4.22
2019-02-11T01:09:19.711Z,4.19
2019-02-11T01:10:19.671Z,4.26
2019-02-11T01:11:19.627Z,4.19
2019-02-11T01:12:19.601Z,4.20
2019-02-11T01:13:27.174Z,4.08
2019-02-11T01:14:19.512Z,4.08
2019-02-11T01:15:19.476Z,3.99
2019-02-11T01:16:19.450Z,4.05
2019-02-11T01:17:19.401Z,4.01
2019-02-11T01:18:19.362Z,4.12
2019-02-11T01:19:19.323Z,4.01
2019-02-11T01:20:19.288Z,4.05
2019-02-11T01:21:19.253Z,4.06
2019-02-11T01:22:19.225Z,3.94
2019-02-11T01:23:19.171Z,3.98
2019-02-11T01:24:19.136Z,3.88
2019-02-11T01:25:19.101Z,3.87
2019-02-11T01:26:19.061Z,3.96
2019-02-11T01:27:19.017Z,3.91
2019-02-11T01:28:18.986Z,3.94
2019-02-11T01:29:18.942Z,3.86
2019-02-11T01:30:18.900Z,4.06
2019-02-11T01:31:18.857Z,3.94
2019-02-11T01:32:18.831Z,3.94
2019-02-11T01:33:18.781Z,3.91
2019-02-11T01:34:18.751Z,3.87
2019-02-11T01:35:18.725Z,3.96
2019-02-11T01:36:18.674Z,3.88
2019-02-11T01:37:18.634Z,3.99
2019-02-11T01:38:18.607Z,3.99
2019-02-11T01:39:18.556Z,3.91
2019-02-11T01:40:18.513Z,3.96
2019-02-11T01:41:18.480Z,4.06
2019-02-11T01:42:18.446Z,4.02
2019-02-11T01:43:18.407Z,4.02
2019-02-11T01:44:18.373Z,4.06
2019-02-11T01:45:18.323Z,4.10
2019-02-11T01:46:18.289Z,4.12
2019-02-11T01:47:18.246Z,4.12
2019-02-11T01:48:18.208Z,4.16
2019-02-11T01:49:18.172Z,4.17
2019-02-11T01:50:18.148Z,4.17
2019-02-11T01:51:18.102Z,4.10
2019-02-11T01:52:18.057Z,4.19
2019-02-11T01:53:18.019Z,4.19
2019-02-11T01:54:17.973Z,4.13
2019-02-11T01:55:17.937Z,4.20
2019-02-11T01:56:17.898Z,4.19
2019-02-11T01:57:17.860Z,4.20
2019-02-11T01:58:17.832Z,4.20
2019-02-11T01:59:17.784Z,4.20
2019-02-11T02:00:17.739Z,4.16
2019-02-11T02:01:17.707Z,4.17
2019-02-11T02:02:17.669Z,4.23
2019-02-11T02:03:17.637Z,4.24
2019-02-11T02:04:17.587Z,4.23
2019-02-11T02:05:17.558Z,4.20
2019-02-11T02:06:17.525Z,4.31
2019-02-11T02:07:17.477Z,4.24
2019-02-11T02:08:17.442Z,4.26
2019-02-11T02:09:17.402Z,4.32
2019-02-11T02:10:17.357Z,4.32
2019-02-11T02:11:17.338Z,4.35
2019-02-11T02:12:17.293Z,4.34
2019-02-11T02:13:17.263Z,4.31
2019-02-11T02:14:17.209Z,4.26
2019-02-11T02:15:17.175Z,4.30
2019-02-11T02:16:17.137Z,4.38
2019-02-11T02:17:17.098Z,4.37
2019-02-11T02:18:17.055Z,4.49
2019-02-11T02:19:17.018Z,4.53
2019-02-11T02:20:16.988Z,4.55
2019-02-11T02:21:16.950Z,4.50
2019-02-11T02:22:16.906Z,4.58
2019-02-11T02:23:16.869Z,4.58
2019-02-11T02:24:16.824Z,4.58
2019-02-11T02:25:16.794Z,4.59
2019-02-11T02:26:16.798Z,4.68
2019-02-11T02:27:16.716Z,4.71
2019-02-11T02:28:16.680Z,4.68
2019-02-11T02:29:16.641Z,4.70
2019-02-11T02:30:16.601Z,4.71
2019-02-11T02:31:16.565Z,4.80
2019-02-11T02:32:16.530Z,4.82
2019-02-11T02:33:16.481Z,4.86
2019-02-11T02:34:16.449Z,4.86
2019-02-11T02:35:16.404Z,4.84
2019-02-11T02:36:16.370Z,4.82
2019-02-11T02:37:16.339Z,4.87
2019-02-11T02:38:16.297Z,4.89
2019-02-11T02:39:16.261Z,4.90
2019-02-11T02:40:16.225Z,4.84
2019-02-11T02:41:16.188Z,4.90
2019-02-11T02:42:16.149Z,4.92
2019-02-11T02:43:16.105Z,4.82
2019-02-11T02:44:16.064Z,4.97
2019-02-11T02:45:16.026Z,4.96
2019-02-11T02:46:15.986Z,4.90
2019-02-11T02:47:15.962Z,4.97
2019-02-11T02:48:15.922Z,5.04
2019-02-11T02:49:15.878Z,5.08
2019-02-11T02:50:15.836Z,5.00
2019-02-11T02:51:15.803Z,5.02
2019-02-11T02:52:15.760Z,4.96
2019-02-11T02:53:15.717Z,4.99
2019-02-11T02:54:15.686Z,5.02
2019-02-11T02:55:15.643Z,4.90
2019-02-11T02:56:15.617Z,4.89
2019-02-11T02:57:15.581Z,4.96
2019-02-11T02:58:15.540Z,4.94
2019-02-11T02:59:15.498Z,4.99
2019-02-11T03:00:15.456Z,4.97
2019-02-11T03:01:15.422Z,4.94
2019-02-11T03:02:15.386Z,4.97
2019-02-11T03:03:15.345Z,4.93
2019-02-11T03:04:15.309Z,4.92
2019-02-11T03:05:15.260Z,4.84
2019-02-11T03:06:15.226Z,4.94
2019-02-11T03:07:15.192Z,4.87
2019-02-11T03:08:15.160Z,4.92
2019-02-11T03:09:15.114Z,4.92
2019-02-11T03:10:15.077Z,5.00
2019-02-11T03:11:15.057Z,4.90
2019-02-11T03:12:15.000Z,4.77
2019-02-11T03:13:14.970Z,4.87
2019-02-11T03:14:14.921Z,4.93
2019-02-11T03:15:14.881Z,4.90
2019-02-11T03:16:14.851Z,4.93
2019-02-11T03:17:14.807Z,4.93
2019-02-11T03:18:14.765Z,4.89
2019-02-11T03:19:14.742Z,4.89
2019-02-11T03:20:14.691Z,4.87
2019-02-11T03:21:14.660Z,4.93
2019-02-11T03:22:14.617Z,4.87
2019-02-11T03:23:14.590Z,4.94
2019-02-11T03:24:14.545Z,4.97
2019-02-11T03:25:14.509Z,4.93
2019-02-11T03:26:14.471Z,4.97
2019-02-11T03:27:14.436Z,4.94
2019-02-11T03:28:14.382Z,4.97
2019-02-11T03:29:14.351Z,4.94
2019-02-11T03:30:14.312Z,5.10
2019-02-11T03:31:14.283Z,5.05
2019-02-11T03:32:14.257Z,5.08
2019-02-11T03:33:14.240Z,5.10
2019-02-11T03:34:14.165Z,5.05
2019-02-11T03:35:14.126Z,5.12
2019-02-11T03:36:14.091Z,5.15
2019-02-11T03:37:14.046Z,5.12
2019-02-11T03:38:14.013Z,5.15
2019-02-11T03:39:13.989Z,5.14
2019-02-11T03:40:13.935Z,5.23
2019-02-11T03:41:13.892Z,5.28
2019-02-11T03:42:13.857Z,5.36
2019-02-11T03:43:13.825Z,5.30
2019-02-11T03:44:15.299Z,5.28
2019-02-11T03:45:13.747Z,5.30
2019-02-11T03:46:13.708Z,5.33
2019-02-11T03:47:13.679Z,5.35
2019-02-11T03:48:13.629Z,5.30
2019-02-11T03:49:13.593Z,5.33
2019-02-11T03:50:13.563Z,5.33
2019-02-11T03:51:13.518Z,5.35
2019-02-11T03:52:13.489Z,5.46
2019-02-11T03:53:13.456Z,5.44
2019-02-11T03:54:13.406Z,5.38
2019-02-11T03:55:13.364Z,5.41
2019-02-11T03:56:13.328Z,5.47
2019-02-11T03:57:13.298Z,5.43
2019-02-11T03:58:13.258Z,5.46
2019-02-11T03:59:13.224Z,5.47
2019-02-11T04:00:13.180Z,5.44
2019-02-11T04:01:13.138Z,5.44
2019-02-11T04:02:14.392Z,5.39
2019-02-11T04:03:13.070Z,5.48
2019-02-11T04:04:13.030Z,5.35
2019-02-11T04:05:12.995Z,5.43
2019-02-11T04:06:12.955Z,5.41
2019-02-11T04:07:12.918Z,5.41
2019-02-11T04:08:12.876Z,5.38
2019-02-11T04:09:12.835Z,5.43
2019-02-11T04:10:12.801Z,5.41
2019-02-11T04:11:12.759Z,5.44
2019-02-11T04:12:12.724Z,5.38
2019-02-11T04:13:12.689Z,5.39
2019-02-11T04:14:12.644Z,5.48
2019-02-11T04:15:12.614Z,5.38
2019-02-11T04:16:12.569Z,5.53
2019-02-11T04:17:12.537Z,5.53
2019-02-11T04:18:12.499Z,5.46
2019-02-11T04:19:12.460Z,5.56
2019-02-11T04:20:12.425Z,5.48
2019-02-11T04:21:12.385Z,5.43
2019-02-11T04:22:12.355Z,5.41
2019-02-11T04:23:12.314Z,5.47
2019-02-11T04:24:12.274Z,5.41
2019-02-11T04:25:12.235Z,5.50
2019-02-11T04:26:12.205Z,5.44
2019-02-11T04:27:12.162Z,5.44
2019-02-11T04:28:12.121Z,5.53
2019-02-11T04:29:12.090Z,5.43
2019-02-11T04:30:12.046Z,5.50
2019-02-11T04:31:12.026Z,5.50
2019-02-11T04:32:11.975Z,5.38
2019-02-11T04:33:11.926Z,5.44
2019-02-11T04:34:11.914Z,5.38
2019-02-11T04:35:11.856Z,5.46
2019-02-11T04:36:11.816Z,5.43
2019-02-11T04:37:11.778Z,5.43
2019-02-11T04:38:11.759Z,5.51
2019-02-11T04:39:11.705Z,5.43
2019-02-11T04:40:11.672Z,5.43
2019-02-11T04:41:11.634Z,5.41
2019-02-11T04:42:11.596Z,5.43
2019-02-11T04:43:11.551Z,5.39
2019-02-11T04:44:11.520Z,5.48
2019-02-11T04:45:11.475Z,5.41
2019-02-11T04:46:11.442Z,5.48
2019-02-11T04:47:11.401Z,5.47
2019-02-11T04:48:11.366Z,5.39
2019-02-11T04:49:11.330Z,5.47
2019-02-11T04:50:11.298Z,5.48
2019-02-11T04:51:11.252Z,5.46
2019-02-11T04:52:11.212Z,5.44
2019-02-11T04:53:11.189Z,5.48
2019-02-11T04:54:11.145Z,5.48
2019-02-11T04:55:11.105Z,5.47
2019-02-11T04:56:11.065Z,5.44
2019-02-11T04:57:11.025Z,5.51
2019-02-11T04:58:10.989Z,5.38
2019-02-11T04:59:10.962Z,5.41
2019-02-11T05:00:10.922Z,5.44
2019-02-11T05:01:10.872Z,5.38
2019-02-11T05:02:10.838Z,5.43
2019-02-11T05:03:10.815Z,5.51
2019-02-11T05:04:10.767Z,5.43
2019-02-11T05:05:10.721Z,5.48
2019-02-11T05:06:10.682Z,5.36
2019-02-11T05:07:10.657Z,5.48
2019-02-11T05:08:10.625Z,5.38
2019-02-11T05:09:10.572Z,5.38
2019-02-11T05:10:10.539Z,5.41
2019-02-11T05:11:10.500Z,5.41
2019-02-11T05:12:10.462Z,5.39
2019-02-11T05:13:10.425Z,5.43
2019-02-11T05:14:10.409Z,5.38
2019-02-11T05:15:10.343Z,5.48
2019-02-11T05:16:10.315Z,5.41
2019-02-11T05:17:10.275Z,5.39
2019-02-11T05:18:10.233Z,5.44
2019-02-11T05:19:10.196Z,5.43
2019-02-11T05:20:10.158Z,5.48
2019-02-11T05:21:10.122Z,5.43
2019-02-11T05:22:10.084Z,5.44
2019-02-11T05:23:10.048Z,5.43
2019-02-11T05:24:10.006Z,5.41
2019-02-11T05:25:09.978Z,5.44
2019-02-11T05:26:09.932Z,5.41
2019-02-11T05:27:09.907Z,5.43
2019-02-11T05:28:09.864Z,5.46
2019-02-11T05:29:09.826Z,5.41
2019-02-11T05:30:09.784Z,5.44
2019-02-11T05:31:09.740Z,5.44
2019-02-11T05:32:09.709Z,5.47
2019-02-11T05:33:09.685Z,5.36
2019-02-11T05:34:09.635Z,5.43
2019-02-11T05:35:09.595Z,5.44
2019-02-11T05:36:09.555Z,5.41
2019-02-11T05:37:09.527Z,5.41
2019-02-11T05:38:09.474Z,5.39
2019-02-11T05:39:09.444Z,5.41
2019-02-11T05:40:09.407Z,5.46
2019-02-11T05:41:09.370Z,5.44
2019-02-11T05:42:09.340Z,5.41
2019-02-11T05:43:09.291Z,5.36
2019-02-11T05:44:09.260Z,5.43
2019-02-11T05:45:09.221Z,5.46
2019-02-11T05:46:09.178Z,5.33
2019-02-11T05:47:09.153Z,5.41
2019-02-11T05:48:09.112Z,5.47
2019-02-11T05:49:09.069Z,5.47
2019-02-11T05:50:09.029Z,5.46
2019-02-11T05:51:09.001Z,5.50
2019-02-11T05:52:09.066Z,5.35
2019-02-11T05:53:08.918Z,5.47
2019-02-11T05:54:08.872Z,5.38
2019-02-11T05:55:08.844Z,5.44
2019-02-11T05:56:08.803Z,5.39
2019-02-11T05:57:08.764Z,5.46
2019-02-11T05:58:08.720Z,5.33
2019-02-11T05:59:08.699Z,5.38
2019-02-11T06:00:08.661Z,5.33
2019-02-11T06:01:08.613Z,5.33
2019-02-11T06:02:08.576Z,5.36
2019-02-11T06:03:09.649Z,5.47
2019-02-11T06:04:08.503Z,5.47
2019-02-11T06:05:08.459Z,5.43
2019-02-11T06:06:08.429Z,5.30
2019-02-11T06:07:08.385Z,5.29
2019-02-11T06:08:08.354Z,5.28
2019-02-11T06:09:08.315Z,5.32
2019-02-11T06:10:08.280Z,5.38
2019-02-11T06:11:08.235Z,5.33
2019-02-11T06:12:08.195Z,5.35
2019-02-11T06:13:08.156Z,5.33
2019-02-11T06:14:08.123Z,5.30
2019-02-11T06:15:08.084Z,5.32
2019-02-11T06:16:08.049Z,5.30
2019-02-11T06:17:08.010Z,5.33
2019-02-11T06:18:07.971Z,5.33
2019-02-11T06:19:07.936Z,5.43
2019-02-11T06:20:07.914Z,5.30
2019-02-11T06:21:07.859Z,5.32
2019-02-11T06:22:07.833Z,5.32
2019-02-11T06:23:07.788Z,5.28
2019-02-11T06:24:07.750Z,5.28
2019-02-11T06:25:07.722Z,5.26
2019-02-11T06:26:07.720Z,5.35
2019-02-11T06:27:07.645Z,5.26
2019-02-11T06:28:07.615Z,5.32
2019-02-11T06:29:07.566Z,5.33
2019-02-11T06:30:07.524Z,5.20
2019-02-11T06:31:07.494Z,5.23
2019-02-11T06:32:07.444Z,5.28
2019-02-11T06:33:07.404Z,5.30
2019-02-11T06:34:07.369Z,5.36
2019-02-11T06:35:07.352Z,5.29
2019-02-11T06:36:12.360Z,5.28
2019-02-11T06:37:07.257Z,5.26
2019-02-11T06:38:07.211Z,5.25
2019-02-11T06:39:07.182Z,5.30
2019-02-11T06:40:07.151Z,5.20
2019-02-11T06:41:07.106Z,5.14
2019-02-11T06:42:07.066Z,5.11
2019-02-11T06:43:07.031Z,5.12
2019-02-11T06:44:06.983Z,5.14
2019-02-11T06:45:12.841Z,5.28
2019-02-11T06:46:06.911Z,5.20
2019-02-11T06:47:06.877Z,5.20
2019-02-11T06:48:06.842Z,5.14
2019-02-11T06:49:06.807Z,5.02
2019-02-11T06:50:06.757Z,5.14
2019-02-11T06:51:06.732Z,5.15
2019-02-11T06:52:06.692Z,5.17
2019-02-11T06:53:06.647Z,5.17
2019-02-11T06:54:06.615Z,5.11
2019-02-11T06:55:06.572Z,5.18
2019-02-11T06:56:06.547Z,5.23
2019-02-11T06:57:06.505Z,5.23
2019-02-11T06:58:06.462Z,5.12
2019-02-11T06:59:06.423Z,5.23
2019-02-11T07:00:06.393Z,5.00
2019-02-11T07:01:06.342Z,5.07
2019-02-11T07:02:06.306Z,5.05
2019-02-11T07:03:06.270Z,5.07
2019-02-11T07:04:06.236Z,5.07
2019-02-11T07:05:06.207Z,5.23
2019-02-11T07:06:06.181Z,5.17
2019-02-11T07:07:06.131Z,5.12
2019-02-11T07:08:07.904Z,5.23
2019-02-11T07:09:06.051Z,5.05
2019-02-11T07:10:06.007Z,5.11
2019-02-11T07:11:05.976Z,5.11
2019-02-11T07:12:05.952Z,5.32
2019-02-11T07:13:05.888Z,5.23
2019-02-11T07:14:05.868Z,5.23
2019-02-11T07:15:05.833Z,5.25
2019-02-11T07:16:05.794Z,5.10
2019-02-11T07:17:05.752Z,5.14
2019-02-11T07:18:05.712Z,5.08
2019-02-11T07:19:05.677Z,5.08
2019-02-11T07:20:05.632Z,5.12
2019-02-11T07:21:05.593Z,5.11
2019-02-11T07:22:05.557Z,5.07
2019-02-11T07:23:05.522Z,5.04
2019-02-11T07:24:05.484Z,5.12
2019-02-11T07:25:05.447Z,5.12
2019-02-11T07:26:05.405Z,5.12
2019-02-11T07:27:05.379Z,5.15
2019-02-11T07:28:05.328Z,5.05
2019-02-11T07:29:05.306Z,5.07
2019-02-11T07:30:05.250Z,5.07
2019-02-11T07:31:05.224Z,5.12
2019-02-11T07:32:05.186Z,5.12
2019-02-11T07:33:05.138Z,5.14
2019-02-11T07:34:05.111Z,5.12
2019-02-11T07:35:05.064Z,5.23
2019-02-11T07:36:05.039Z,5.17
2019-02-11T07:37:05.002Z,5.11
2019-02-11T07:38:04.957Z,5.18
2019-02-11T07:39:04.916Z,5.23
2019-02-11T07:40:04.874Z,5.20
2019-02-11T07:41:04.839Z,5.18
2019-02-11T07:42:04.874Z,5.20
2019-02-11T07:43:04.763Z,5.25
2019-02-11T07:44:04.728Z,5.14
2019-02-11T07:45:04.683Z,5.28
2019-02-11T07:46:04.652Z,5.21
2019-02-11T07:47:04.608Z,5.20
2019-02-11T07:48:04.580Z,5.26
2019-02-11T07:49:04.533Z,5.35
2019-02-11T07:50:04.490Z,5.21
2019-02-11T07:51:04.471Z,5.23
2019-02-11T07:52:04.423Z,5.20
2019-02-11T07:53:04.384Z,5.18
2019-02-11T07:54:04.344Z,5.26
2019-02-11T07:55:04.305Z,5.28
2019-02-11T07:56:04.270Z,5.32
2019-02-11T07:57:04.238Z,5.35
2019-02-11T07:58:04.204Z,5.30
2019-02-11T07:59:04.158Z,5.30
2019-02-11T08:00:04.130Z,5.28
2019-02-11T08:01:04.086Z,5.36
2019-02-11T08:02:04.043Z,5.32
2019-02-11T08:03:04.009Z,5.36
2019-02-11T08:04:03.975Z,5.43
2019-02-11T08:05:03.936Z,5.48
2019-02-11T08:06:03.904Z,5.30
2019-02-11T08:07:03.846Z,5.28
2019-02-11T08:08:03.814Z,5.33
2019-02-11T08:09:03.775Z,5.39
2019-02-11T08:10:03.739Z,5.35
2019-02-11T08:11:03.706Z,5.36
2019-02-11T08:12:03.660Z,5.32
2019-02-11T08:13:03.640Z,5.46
2019-02-11T08:14:03.592Z,5.28
2019-02-11T08:15:03.564Z,5.32
2019-02-11T08:16:03.510Z,5.36
2019-02-11T08:17:03.476Z,5.33
2019-02-11T08:18:03.458Z,5.33
2019-02-11T08:19:03.411Z,5.43
2019-02-11T08:20:03.361Z,5.53
2019-02-11T08:21:03.326Z,5.44
2019-02-11T08:22:03.291Z,5.33
2019-02-11T08:23:11.027Z,5.46
2019-02-11T08:24:03.222Z,5.57
2019-02-11T08:25:03.179Z,5.46
2019-02-11T08:26:03.144Z,5.48
2019-02-11T08:27:03.102Z,5.43
2019-02-11T08:28:03.076Z,5.47
2019-02-11T08:29:03.049Z,5.46
2019-02-11T08:30:02.986Z,5.38
2019-02-11T08:31:02.955Z,5.47
2019-02-11T08:32:02.911Z,5.44
2019-02-11T08:33:02.876Z,5.43
2019-02-11T08:34:02.840Z,5.39
2019-02-11T08:35:02.800Z,5.48
2019-02-11T08:36:02.762Z,5.46
2019-02-11T08:37:02.728Z,5.48
2019-02-11T08:38:02.682Z,5.59
2019-02-11T08:39:02.655Z,5.51
2019-02-11T08:40:02.606Z,5.65
2019-02-11T08:41:02.572Z,5.64
2019-02-11T08:42:02.541Z,5.62
2019-02-11T08:43:02.498Z,5.76
2019-02-11T08:44:02.471Z,5.65
2019-02-11T08:45:02.430Z,5.53
2019-02-11T08:46:02.380Z,5.66
2019-02-11T08:47:02.350Z,5.66
2019-02-11T08:48:02.315Z,5.68
2019-02-11T08:49:02.275Z,5.57
2019-02-11T08:50:02.243Z,5.62
2019-02-11T08:51:02.201Z,5.56
2019-02-11T08:52:02.163Z,5.56
2019-02-11T08:53:02.131Z,5.66
2019-02-11T08:54:02.096Z,5.62
2019-02-11T08:55:02.057Z,5.54
2019-02-11T08:56:03.416Z,5.53
2019-02-11T08:57:01.981Z,5.51
2019-02-11T08:58:01.950Z,5.59
2019-02-11T08:59:01.932Z,5.61
2019-02-11T09:00:01.866Z,5.61
2019-02-11T09:01:01.827Z,5.59
2019-02-11T09:02:01.807Z,5.68
2019-02-11T09:03:01.753Z,5.62
2019-02-11T09:04:01.717Z,5.64
2019-02-11T09:05:01.693Z,5.68
2019-02-11T09:06:01.653Z,5.72
2019-02-11T09:07:01.607Z,5.73
2019-02-11T09:08:01.584Z,5.76
2019-02-11T09:09:01.528Z,5.80
2019-02-11T09:10:01.493Z,5.71
2019-02-11T09:11:01.457Z,5.82
2019-02-11T09:12:01.411Z,5.82
2019-02-11T09:13:01.382Z,5.71
2019-02-11T09:14:01.344Z,5.80
2019-02-11T09:15:01.313Z,5.72
2019-02-11T09:16:01.262Z,5.76
2019-02-11T09:17:01.228Z,5.79
2019-02-11T09:18:01.208Z,5.86
2019-02-11T09:19:01.152Z,5.91
2019-02-11T09:20:01.116Z,5.84
2019-02-11T09:21:01.083Z,5.97
2019-02-11T09:22:07.332Z,5.86
2019-02-11T09:23:01.012Z,5.76
2019-02-11T09:24:00.972Z,5.84
2019-02-11T09:25:00.934Z,5.84
2019-02-11T09:26:00.894Z,5.93
2019-02-11T09:27:00.860Z,6.04
2019-02-11T09:28:00.818Z,6.01
2019-02-11T09:29:09.505Z,6.01
2019-02-11T09:31:05.189Z,6.01
2019-02-11T09:32:05.129Z,6.05
2019-02-11T09:33:05.082Z,6.02
2019-02-11T09:34:05.089Z,6.01
2019-02-11T09:35:05.023Z,6.04
2019-02-11T09:36:04.975Z,6.11
2019-02-11T09:37:04.944Z,6.01
2019-02-11T09:38:04.924Z,6.07
2019-02-11T09:39:04.856Z,6.08
2019-02-11T09:40:04.831Z,6.19
2019-02-11T09:41:04.800Z,6.19
2019-02-11T09:42:04.753Z,6.24
2019-02-11T09:43:04.721Z,6.35
2019-02-11T09:44:04.683Z,6.28
2019-02-11T09:45:04.644Z,6.24
2019-02-11T09:46:04.600Z,6.09
2019-02-11T09:47:04.574Z,6.17
2019-02-11T09:48:04.535Z,6.20
2019-02-11T09:49:04.496Z,6.20
2019-02-11T09:50:04.464Z,6.22
2019-02-11T09:51:04.414Z,6.16
2019-02-11T09:52:04.386Z,6.22
2019-02-11T09:53:04.351Z,6.27
2019-02-11T09:54:04.315Z,6.26
2019-02-11T09:55:04.271Z,6.17
2019-02-11T09:56:04.249Z,6.30
2019-02-11T09:57:04.204Z,6.33
2019-02-11T09:58:04.171Z,6.33
2019-02-11T09:59:04.130Z,6.38
2019-02-11T10:00:04.094Z,6.36
2019-02-11T10:01:04.068Z,6.36
2019-02-11T10:02:04.010Z,6.38
2019-02-11T10:03:03.979Z,6.36
2019-02-11T10:04:03.941Z,6.24
2019-02-11T10:05:03.905Z,6.22
2019-02-11T10:06:03.871Z,6.26
2019-02-11T10:07:03.837Z,6.39
2019-02-11T10:08:03.797Z,6.44
2019-02-11T10:09:03.755Z,6.39
2019-02-11T10:10:03.714Z,6.49
2019-02-11T10:11:03.684Z,6.48
2019-02-11T10:12:03.657Z,6.48
2019-02-11T10:13:03.620Z,6.59
2019-02-11T10:14:03.580Z,6.57
2019-02-11T10:15:03.547Z,6.60
2019-02-11T10:16:03.510Z,6.52
2019-02-11T10:17:03.469Z,6.57
2019-02-11T10:18:03.426Z,6.60
2019-02-11T10:19:03.391Z,6.57
2019-02-11T10:20:03.355Z,6.54
2019-02-11T10:21:03.319Z,6.48
2019-02-11T10:22:03.280Z,6.49
2019-02-11T10:23:03.241Z,6.51
2019-02-11T10:24:03.217Z,6.49
2019-02-11T10:25:03.170Z,6.62
2019-02-11T10:26:03.147Z,6.56
2019-02-11T10:27:03.105Z,6.63
2019-02-11T10:28:03.068Z,6.66
2019-02-11T10:29:03.030Z,6.62
2019-02-11T10:30:02.991Z,6.52
2019-02-11T10:31:02.947Z,6.54
2019-02-11T10:32:02.914Z,6.63
2019-02-11T10:33:02.881Z,6.74
2019-02-11T10:34:02.843Z,6.72
2019-02-11T10:35:02.806Z,6.77
2019-02-11T10:36:02.776Z,6.78
2019-02-11T10:37:02.737Z,6.66
2019-02-11T10:38:02.695Z,6.66
2019-02-11T10:39:02.666Z,6.69
2019-02-11T10:40:02.627Z,6.69
2019-02-11T10:41:02.588Z,6.79
2019-02-11T10:42:02.546Z,6.75
2019-02-11T10:43:02.516Z,6.77
2019-02-11T10:44:02.466Z,6.87
2019-02-11T10:45:02.436Z,6.69
2019-02-11T10:46:02.397Z,6.81
2019-02-11T10:47:02.376Z,6.72
2019-02-11T10:48:02.323Z,6.84
2019-02-11T10:49:02.288Z,6.89
2019-02-11T10:50:02.252Z,6.96
2019-02-11T10:51:02.220Z,7.11
2019-02-11T10:52:02.177Z,7.05
2019-02-11T10:53:02.147Z,7.05
2019-02-11T10:54:02.148Z,7.07
2019-02-11T10:55:02.107Z,7.14
2019-02-11T10:56:02.036Z,7.03
2019-02-11T10:57:02.030Z,6.95
2019-02-11T10:58:01.972Z,6.92
2019-02-11T10:59:01.937Z,6.82
2019-02-11T11:00:01.903Z,6.84
2019-02-11T11:01:01.852Z,6.89
2019-02-11T11:02:01.822Z,6.92
2019-02-11T11:03:01.786Z,6.92
2019-02-11T11:04:01.757Z,7.42
2019-02-11T11:05:01.721Z,7.76
2019-02-11T11:06:01.687Z,8.24
2019-02-11T11:07:01.646Z,8.66
2019-02-11T11:08:01.619Z,9.02
2019-02-11T11:09:01.564Z,8.97
2019-02-11T11:10:01.538Z,8.92
2019-02-11T11:11:01.547Z,8.94
2019-02-11T11:12:01.474Z,8.53
2019-02-11T11:13:01.438Z,8.71
2019-02-11T11:14:01.402Z,9.32
2019-02-11T11:15:01.377Z,9.91
2019-02-11T11:16:01.342Z,10.05
2019-02-11T11:17:01.325Z,10.07
2019-02-11T11:18:01.284Z,10.28
2019-02-11T11:19:01.263Z,10.10
2019-02-11T11:20:01.213Z,9.84
2019-02-11T11:21:01.183Z,10.44
2019-02-11T11:22:01.148Z,10.26
2019-02-11T11:23:01.140Z,9.94
2019-02-11T11:24:01.110Z,9.62
2019-02-11T11:25:01.085Z,10.07
2019-02-11T11:26:01.014Z,10.09
2019-02-11T11:27:01.009Z,9.61
2019-02-11T11:28:01.000Z,9.40
2019-02-11T11:29:00.960Z,9.25
2019-02-11T11:30:00.943Z,9.19
2019-02-11T11:31:00.898Z,8.94
2019-02-11T11:32:00.846Z,8.73
2019-02-11T11:33:00.813Z,8.81
2019-02-11T11:34:00.780Z,8.69
2019-02-11T11:35:00.750Z,8.70
2019-02-11T11:36:00.714Z,8.71
2019-02-11T11:37:00.689Z,8.55
2019-02-11T11:38:00.662Z,8.45
2019-02-11T11:39:00.610Z,8.51
2019-02-11T11:40:00.583Z,8.38
2019-02-11T11:41:00.567Z,8.26
2019-02-11T11:42:00.510Z,8.05
2019-02-11T11:43:00.478Z,8.24
2019-02-11T11:44:00.448Z,8.23
2019-02-11T11:45:00.421Z,8.08
2019-02-11T11:46:00.378Z,8.19
2019-02-11T11:47:00.345Z,8.28
2019-02-11T11:48:00.309Z,8.27
2019-02-11T11:49:00.301Z,8.06
2019-02-11T11:50:00.240Z,7.90
2019-02-11T11:51:00.201Z,7.97
2019-02-11T11:52:00.186Z,7.94
2019-02-11T11:53:00.153Z,7.83
2019-02-11T11:54:00.114Z,7.91
2019-02-11T11:55:00.070Z,7.73
2019-02-11T11:56:02.364Z,7.83
2019-02-11T11:57:00.012Z,7.95
2019-02-11T11:57:59.971Z,8.09
2019-02-11T11:58:59.929Z,8.42
2019-02-11T11:59:59.899Z,8.23
2019-02-11T12:00:59.868Z,8.20
2019-02-11T12:01:59.854Z,8.26
2019-02-11T12:03:03.678Z,8.36
2019-02-11T12:03:59.760Z,8.61
2019-02-11T12:04:59.719Z,8.64
2019-02-11T12:05:59.726Z,8.67
2019-02-11T12:06:59.669Z,8.69
2019-02-11T12:07:59.694Z,8.64
2019-02-11T12:08:59.683Z,8.48
2019-02-11T12:09:59.556Z,8.19
2019-02-11T12:10:59.539Z,8.18
2019-02-11T12:11:59.478Z,8.13
2019-02-11T12:12:59.467Z,8.24
2019-02-11T12:13:59.421Z,8.18
2019-02-11T12:14:59.393Z,8.31
2019-02-11T12:15:59.366Z,8.06
2019-02-11T12:17:02.784Z,8.15
2019-02-11T12:17:59.277Z,8.26
2019-02-11T12:18:59.233Z,8.26
2019-02-11T12:19:59.257Z,8.19
2019-02-11T12:20:59.193Z,8.27
2019-02-11T12:21:59.125Z,8.09
2019-02-11T12:22:59.082Z,8.30
2019-02-11T12:23:59.065Z,8.37
2019-02-11T12:24:59.017Z,8.42
2019-02-11T12:25:58.992Z,8.34
2019-02-11T12:26:58.959Z,8.30
2019-02-11T12:27:58.974Z,8.30
2019-02-11T12:28:58.916Z,8.19
2019-02-11T12:29:58.880Z,8.24
2019-02-11T12:30:58.847Z,8.45
2019-02-11T12:31:58.782Z,8.55
2019-02-11T12:32:58.755Z,8.44
2019-02-11T12:33:58.738Z,8.55
2019-02-11T12:34:58.722Z,8.38
2019-02-11T12:35:58.661Z,8.55
2019-02-11T12:36:58.644Z,8.52
2019-02-11T12:37:58.616Z,8.51
2019-02-11T12:38:58.534Z,8.24
2019-02-11T12:39:58.536Z,8.36
2019-02-11T12:40:58.486Z,8.33
2019-02-11T12:41:58.430Z,8.36
2019-02-11T12:42:58.406Z,8.31
2019-02-11T12:43:58.369Z,8.46
2019-02-11T12:44:58.333Z,8.19
2019-02-11T12:45:58.302Z,8.27
2019-02-11T12:47:13.463Z,8.23
2019-02-11T12:47:58.234Z,8.24
2019-02-11T12:49:01.551Z,8.06
2019-02-11T12:49:58.167Z,8.10
2019-02-11T12:50:58.117Z,8.15
2019-02-11T12:51:58.071Z,8.03
2019-02-11T12:52:58.044Z,7.95
2019-02-11T12:53:58.027Z,7.77
2019-02-11T12:54:57.999Z,7.85
2019-02-11T12:56:02.354Z,7.75
2019-02-11T12:56:57.906Z,7.87
2019-02-11T12:57:57.933Z,7.95
2019-02-11T12:58:57.867Z,8.05
2019-02-11T12:59:57.810Z,8.01
2019-02-11T13:00:57.791Z,8.01
2019-02-11T13:01:57.761Z,8.06
2019-02-11T13:02:57.692Z,7.87
2019-02-11T13:03:57.659Z,7.87
2019-02-11T13:04:57.621Z,7.91
2019-02-11T13:05:57.672Z,7.91
2019-02-11T13:06:57.586Z,7.90
2019-02-11T13:07:57.548Z,7.88
2019-02-11T13:08:57.492Z,7.94
2019-02-11T13:09:57.473Z,7.80
2019-02-11T13:10:57.420Z,7.79
2019-02-11T13:11:57.398Z,7.82
2019-02-11T13:12:57.349Z,7.82
2019-02-11T13:13:57.329Z,7.85
2019-02-11T13:14:57.303Z,8.06
2019-02-11T13:16:57.206Z,7.95
2019-02-11T13:17:57.240Z,8.00
2019-02-11T13:18:57.151Z,7.97
2019-02-11T13:20:08.319Z,7.94